sensor_id;sensor_type;location;lat;lon;timestamp;P1;durP1;ratioP1;P2;durP2;ratioP2
20365;SDS011;10341;49.894;8.822;2023-03-23T00:04:40;2.38;;;1.25;;
20365;SDS011;10341;49.894;8.822;2023-03-23T00:10:01;1.48;;;0.95;;
20365;SDS011;10341;49.894;8.822;2023-03-23T00:15:21;1.73;;;1.00;;
20365;SDS011;10341;49.894;8.822;2023-03-23T00:20:43;1.08;;;0.80;;
20365;SDS011;10341;49.894;8.822;2023-03-23T00:26:03;2.17;;;1.00;;
20365;SDS011;10341;49.894;8.822;2023-03-23T00:31:22;1.67;;;1.00;;
20365;SDS011;10341;49.894;8.822;2023-03-23T00:36:42;1.27;;;1.00;;
20365;SDS011;10341;49.894;8.822;2023-03-23T00:42:05;1.17;;;0.93;;
20365;SDS011;10341;49.894;8.822;2023-03-23T00:47:24;0.88;;;0.75;;
20365;SDS011;10341;49.894;8.822;2023-03-23T00:52:44;2.97;;;1.00;;
20365;SDS011;10341;49.894;8.822;2023-03-23T00:58:03;2.22;;;0.93;;
20365;SDS011;10341;49.894;8.822;2023-03-23T01:03:23;0.95;;;0.80;;
20365;SDS011;10341;49.894;8.822;2023-03-23T01:08:44;1.38;;;0.80;;
20365;SDS011;10341;49.894;8.822;2023-03-23T01:14:04;1.00;;;0.80;;
20365;SDS011;10341;49.894;8.822;2023-03-23T01:19:24;2.40;;;0.98;;
20365;SDS011;10341;49.894;8.822;2023-03-23T01:24:43;1.23;;;0.90;;
20365;SDS011;10341;49.894;8.822;2023-03-23T01:30:03;1.60;;;0.97;;
20365;SDS011;10341;49.894;8.822;2023-03-23T01:35:24;0.93;;;0.85;;
20365;SDS011;10341;49.894;8.822;2023-03-23T01:40:45;1.23;;;1.05;;
20365;SDS011;10341;49.894;8.822;2023-03-23T01:46:06;2.08;;;1.08;;
20365;SDS011;10341;49.894;8.822;2023-03-23T01:51:25;1.80;;;1.00;;
20365;SDS011;10341;49.894;8.822;2023-03-23T01:56:47;1.30;;;0.90;;
20365;SDS011;10341;49.894;8.822;2023-03-23T02:02:12;2.53;;;0.90;;
20365;SDS011;10341;49.894;8.822;2023-03-23T02:14:15;1.73;;;0.93;;
20365;SDS011;10341;49.894;8.822;2023-03-23T02:19:58;1.00;;;0.70;;
20365;SDS011;10341;49.894;8.822;2023-03-23T02:31:21;3.20;;;1.13;;
20365;SDS011;10341;49.894;8.822;2023-03-23T02:37:01;1.85;;;1.10;;
20365;SDS011;10341;49.894;8.822;2023-03-23T02:42:28;2.35;;;1.00;;
20365;SDS011;10341;49.894;8.822;2023-03-23T02:47:52;3.03;;;1.08;;
20365;SDS011;10341;49.894;8.822;2023-03-23T02:53:13;0.88;;;0.80;;
20365;SDS011;10341;49.894;8.822;2023-03-23T02:58:37;2.25;;;0.90;;
20365;SDS011;10341;49.894;8.822;2023-03-23T03:03:57;1.08;;;0.90;;
20365;SDS011;10341;49.894;8.822;2023-03-23T03:09:23;1.63;;;1.00;;
20365;SDS011;10341;49.894;8.822;2023-03-23T03:15:02;1.25;;;1.00;;
20365;SDS011;10341;49.894;8.822;2023-03-23T03:20:27;2.17;;;1.10;;
20365;SDS011;10341;49.894;8.822;2023-03-23T03:25:48;1.38;;;1.13;;
20365;SDS011;10341;49.894;8.822;2023-03-23T03:31:18;2.03;;;1.50;;
20365;SDS011;10341;49.894;8.822;2023-03-23T03:36:45;3.97;;;1.17;;
20365;SDS011;10341;49.894;8.822;2023-03-23T03:42:05;1.42;;;0.90;;
20365;SDS011;10341;49.894;8.822;2023-03-23T03:47:25;2.03;;;1.20;;
20365;SDS011;10341;49.894;8.822;2023-03-23T03:52:45;2.30;;;1.00;;
20365;SDS011;10341;49.894;8.822;2023-03-23T03:58:05;1.58;;;1.00;;
20365;SDS011;10341;49.894;8.822;2023-03-23T04:03:43;1.92;;;1.20;;
20365;SDS011;10341;49.894;8.822;2023-03-23T04:09:09;1.67;;;1.10;;
20365;SDS011;10341;49.894;8.822;2023-03-23T04:14:29;1.90;;;0.93;;
20365;SDS011;10341;49.894;8.822;2023-03-23T04:19:49;1.50;;;1.23;;
20365;SDS011;10341;49.894;8.822;2023-03-23T04:30:32;1.25;;;1.00;;
20365;SDS011;10341;49.894;8.822;2023-03-23T04:35:59;1.23;;;0.93;;
20365;SDS011;10341;49.894;8.822;2023-03-23T04:41:46;1.48;;;1.10;;
20365;SDS011;10341;49.894;8.822;2023-03-23T04:47:13;3.22;;;1.23;;
20365;SDS011;10341;49.894;8.822;2023-03-23T04:52:44;0.93;;;0.90;;
20365;SDS011;10341;49.894;8.822;2023-03-23T04:58:06;1.10;;;1.00;;
20365;SDS011;10341;49.894;8.822;2023-03-23T05:03:31;1.50;;;1.00;;
20365;SDS011;10341;49.894;8.822;2023-03-23T05:08:51;2.70;;;1.10;;
20365;SDS011;10341;49.894;8.822;2023-03-23T05:14:14;2.40;;;1.10;;
20365;SDS011;10341;49.894;8.822;2023-03-23T05:19:37;1.17;;;1.00;;
20365;SDS011;10341;49.894;8.822;2023-03-23T05:25:09;2.05;;;1.00;;
20365;SDS011;10341;49.894;8.822;2023-03-23T05:30:34;2.78;;;1.05;;
20365;SDS011;10341;49.894;8.822;2023-03-23T05:35:55;1.70;;;0.90;;
20365;SDS011;10341;49.894;8.822;2023-03-23T05:41:26;2.53;;;1.10;;
20365;SDS011;10341;49.894;8.822;2023-03-23T05:46:46;1.40;;;1.13;;
20365;SDS011;10341;49.894;8.822;2023-03-23T05:57:26;2.42;;;1.10;;
20365;SDS011;10341;49.894;8.822;2023-03-23T06:02:55;1.65;;;1.27;;
20365;SDS011;10341;49.894;8.822;2023-03-23T06:08:27;1.45;;;1.00;;
20365;SDS011;10341;49.894;8.822;2023-03-23T06:13:49;1.92;;;1.13;;
20365;SDS011;10341;49.894;8.822;2023-03-23T06:24:36;1.75;;;1.20;;
20365;SDS011;10341;49.894;8.822;2023-03-23T06:29:55;1.27;;;1.17;;
20365;SDS011;10341;49.894;8.822;2023-03-23T06:35:16;1.27;;;1.10;;
20365;SDS011;10341;49.894;8.822;2023-03-23T06:40:53;1.80;;;1.20;;
20365;SDS011;10341;49.894;8.822;2023-03-23T06:46:17;2.38;;;1.17;;
20365;SDS011;10341;49.894;8.822;2023-03-23T06:51:45;1.90;;;1.00;;
20365;SDS011;10341;49.894;8.822;2023-03-23T06:57:07;2.08;;;0.98;;
20365;SDS011;10341;49.894;8.822;2023-03-23T07:02:27;1.20;;;1.00;;
20365;SDS011;10341;49.894;8.822;2023-03-23T07:07:48;1.67;;;1.10;;
20365;SDS011;10341;49.894;8.822;2023-03-23T07:13:17;2.05;;;1.00;;
20365;SDS011;10341;49.894;8.822;2023-03-23T07:18:43;1.50;;;1.40;;
20365;SDS011;10341;49.894;8.822;2023-03-23T07:24:03;1.58;;;1.20;;
20365;SDS011;10341;49.894;8.822;2023-03-23T07:29:35;1.95;;;1.30;;
20365;SDS011;10341;49.894;8.822;2023-03-23T07:35:03;2.67;;;1.30;;
20365;SDS011;10341;49.894;8.822;2023-03-23T07:40:32;3.25;;;1.48;;
20365;SDS011;10341;49.894;8.822;2023-03-23T07:45:57;5.68;;;1.60;;
20365;SDS011;10341;49.894;8.822;2023-03-23T07:51:23;2.40;;;1.30;;
20365;SDS011;10341;49.894;8.822;2023-03-23T07:56:44;1.85;;;0.90;;
20365;SDS011;10341;49.894;8.822;2023-03-23T08:02:13;1.47;;;1.00;;
20365;SDS011;10341;49.894;8.822;2023-03-23T08:07:36;1.98;;;1.05;;
20365;SDS011;10341;49.894;8.822;2023-03-23T08:12:56;1.75;;;1.10;;
20365;SDS011;10341;49.894;8.822;2023-03-23T08:18:32;2.20;;;1.00;;
20365;SDS011;10341;49.894;8.822;2023-03-23T08:24:29;1.00;;;0.90;;
20365;SDS011;10341;49.894;8.822;2023-03-23T08:29:59;1.30;;;0.90;;
20365;SDS011;10341;49.894;8.822;2023-03-23T08:35:41;2.28;;;0.90;;
20365;SDS011;10341;49.894;8.822;2023-03-23T08:41:18;0.85;;;0.80;;
20365;SDS011;10341;49.894;8.822;2023-03-23T08:46:55;0.90;;;0.80;;
20365;SDS011;10341;49.894;8.822;2023-03-23T08:52:34;1.88;;;1.10;;
20365;SDS011;10341;49.894;8.822;2023-03-23T08:58:26;2.55;;;1.00;;
20365;SDS011;10341;49.894;8.822;2023-03-23T09:03:49;1.30;;;0.90;;
20365;SDS011;10341;49.894;8.822;2023-03-23T09:09:21;1.50;;;1.08;;
20365;SDS011;10341;49.894;8.822;2023-03-23T09:14:40;3.75;;;0.90;;
20365;SDS011;10341;49.894;8.822;2023-03-23T09:20:00;1.67;;;0.90;;
20365;SDS011;10341;49.894;8.822;2023-03-23T09:25:21;2.28;;;0.88;;
20365;SDS011;10341;49.894;8.822;2023-03-23T09:30:44;2.13;;;1.30;;
20365;SDS011;10341;49.894;8.822;2023-03-23T09:36:04;1.00;;;0.88;;
20365;SDS011;10341;49.894;8.822;2023-03-23T09:47:17;0.98;;;0.90;;
20365;SDS011;10341;49.894;8.822;2023-03-23T09:52:44;2.05;;;1.13;;
20365;SDS011;10341;49.894;8.822;2023-03-23T09:58:17;1.98;;;1.00;;
20365;SDS011;10341;49.894;8.822;2023-03-23T10:03:41;1.40;;;1.00;;
20365;SDS011;10341;49.894;8.822;2023-03-23T10:09:03;2.78;;;1.02;;
20365;SDS011;10341;49.894;8.822;2023-03-23T10:25:25;1.00;;;0.80;;
20365;SDS011;10341;49.894;8.822;2023-03-23T10:30:57;2.13;;;0.77;;
20365;SDS011;10341;49.894;8.822;2023-03-23T10:36:24;1.10;;;0.63;;
20365;SDS011;10341;49.894;8.822;2023-03-23T10:41:48;1.40;;;1.08;;
20365;SDS011;10341;49.894;8.822;2023-03-23T10:47:08;1.48;;;0.75;;
20365;SDS011;10341;49.894;8.822;2023-03-23T10:52:32;2.20;;;0.85;;
20365;SDS011;10341;49.894;8.822;2023-03-23T10:58:00;0.77;;;0.70;;
20365;SDS011;10341;49.894;8.822;2023-03-23T11:03:24;1.67;;;0.90;;
20365;SDS011;10341;49.894;8.822;2023-03-23T11:08:51;1.00;;;0.80;;
20365;SDS011;10341;49.894;8.822;2023-03-23T11:19:58;0.60;;;0.60;;
20365;SDS011;10341;49.894;8.822;2023-03-23T11:25:28;0.60;;;0.60;;
20365;SDS011;10341;49.894;8.822;2023-03-23T11:30:47;1.60;;;0.60;;
20365;SDS011;10341;49.894;8.822;2023-03-23T11:36:07;1.40;;;0.63;;
20365;SDS011;10341;49.894;8.822;2023-03-23T11:41:29;1.05;;;0.75;;
20365;SDS011;10341;49.894;8.822;2023-03-23T11:47:01;1.00;;;0.82;;
20365;SDS011;10341;49.894;8.822;2023-03-23T11:58:00;1.80;;;0.80;;
20365;SDS011;10341;49.894;8.822;2023-03-23T12:03:39;1.10;;;0.85;;
20365;SDS011;10341;49.894;8.822;2023-03-23T12:14:43;1.67;;;0.70;;
20365;SDS011;10341;49.894;8.822;2023-03-23T12:26:12;0.88;;;0.70;;
20365;SDS011;10341;49.894;8.822;2023-03-23T12:37:28;0.82;;;0.80;;
20365;SDS011;10341;49.894;8.822;2023-03-23T12:48:38;1.17;;;0.80;;
20365;SDS011;10341;49.894;8.822;2023-03-23T12:54:25;0.80;;;0.80;;
20365;SDS011;10341;49.894;8.822;2023-03-23T13:05:40;0.75;;;0.70;;
20365;SDS011;10341;49.894;8.822;2023-03-23T13:11:08;0.80;;;0.80;;
20365;SDS011;10341;49.894;8.822;2023-03-23T13:22:33;0.75;;;0.60;;
20365;SDS011;10341;49.894;8.822;2023-03-23T13:27:58;1.25;;;0.90;;
20365;SDS011;10341;49.894;8.822;2023-03-23T13:33:20;0.82;;;0.70;;
20365;SDS011;10341;49.894;8.822;2023-03-23T13:38:49;0.70;;;0.63;;
20365;SDS011;10341;49.894;8.822;2023-03-23T13:44:16;0.80;;;0.68;;
20365;SDS011;10341;49.894;8.822;2023-03-23T13:49:46;0.93;;;0.80;;
20365;SDS011;10341;49.894;8.822;2023-03-23T14:00:50;0.60;;;0.60;;
20365;SDS011;10341;49.894;8.822;2023-03-23T14:06:33;0.93;;;0.73;;
20365;SDS011;10341;49.894;8.822;2023-03-23T14:12:03;0.55;;;0.55;;
20365;SDS011;10341;49.894;8.822;2023-03-23T14:17:28;0.50;;;0.50;;
20365;SDS011;10341;49.894;8.822;2023-03-23T14:22:52;1.52;;;0.43;;
20365;SDS011;10341;49.894;8.822;2023-03-23T14:28:20;0.90;;;0.52;;
20365;SDS011;10341;49.894;8.822;2023-03-23T14:33:40;0.63;;;0.50;;
20365;SDS011;10341;49.894;8.822;2023-03-23T14:44:44;1.30;;;0.32;;
20365;SDS011;10341;49.894;8.822;2023-03-23T14:50:22;0.70;;;0.70;;
20365;SDS011;10341;49.894;8.822;2023-03-23T14:55:46;0.60;;;0.60;;
20365;SDS011;10341;49.894;8.822;2023-03-23T15:01:08;0.68;;;0.60;;
20365;SDS011;10341;49.894;8.822;2023-03-23T15:06:31;1.08;;;0.98;;
20365;SDS011;10341;49.894;8.822;2023-03-23T15:17:18;1.17;;;0.60;;
20365;SDS011;10341;49.894;8.822;2023-03-23T15:22:45;1.00;;;0.70;;
20365;SDS011;10341;49.894;8.822;2023-03-23T15:28:15;1.50;;;0.80;;
20365;SDS011;10341;49.894;8.822;2023-03-23T15:33:37;1.45;;;0.80;;
20365;SDS011;10341;49.894;8.822;2023-03-23T15:38:58;1.50;;;0.70;;
20365;SDS011;10341;49.894;8.822;2023-03-23T15:44:22;1.35;;;0.80;;
20365;SDS011;10341;49.894;8.822;2023-03-23T15:49:42;0.82;;;0.80;;
20365;SDS011;10341;49.894;8.822;2023-03-23T15:55:03;3.17;;;0.82;;
20365;SDS011;10341;49.894;8.822;2023-03-23T16:00:37;1.85;;;0.90;;
20365;SDS011;10341;49.894;8.822;2023-03-23T16:05:57;1.42;;;0.75;;
20365;SDS011;10341;49.894;8.822;2023-03-23T16:11:22;1.45;;;0.70;;
20365;SDS011;10341;49.894;8.822;2023-03-23T16:16:44;0.98;;;0.60;;
20365;SDS011;10341;49.894;8.822;2023-03-23T16:22:05;1.05;;;0.75;;
20365;SDS011;10341;49.894;8.822;2023-03-23T16:32:45;1.33;;;0.60;;
20365;SDS011;10341;49.894;8.822;2023-03-23T16:38:05;0.97;;;0.70;;
20365;SDS011;10341;49.894;8.822;2023-03-23T16:43:24;1.45;;;0.85;;
20365;SDS011;10341;49.894;8.822;2023-03-23T16:48:44;2.57;;;0.93;;
20365;SDS011;10341;49.894;8.822;2023-03-23T16:54:03;3.50;;;0.80;;
20365;SDS011;10341;49.894;8.822;2023-03-23T16:59:23;0.90;;;0.80;;
20365;SDS011;10341;49.894;8.822;2023-03-23T17:04:46;2.70;;;0.70;;
20365;SDS011;10341;49.894;8.822;2023-03-23T17:10:06;1.17;;;0.88;;
20365;SDS011;10341;49.894;8.822;2023-03-23T17:15:26;1.10;;;0.85;;
20365;SDS011;10341;49.894;8.822;2023-03-23T17:20:46;1.67;;;1.20;;
20365;SDS011;10341;49.894;8.822;2023-03-23T17:26:06;1.25;;;0.80;;
20365;SDS011;10341;49.894;8.822;2023-03-23T17:31:25;1.27;;;1.07;;
20365;SDS011;10341;49.894;8.822;2023-03-23T17:36:45;1.88;;;0.90;;
20365;SDS011;10341;49.894;8.822;2023-03-23T17:42:04;2.75;;;1.15;;
20365;SDS011;10341;49.894;8.822;2023-03-23T17:47:25;2.70;;;1.15;;
20365;SDS011;10341;49.894;8.822;2023-03-23T17:52:44;1.88;;;1.13;;
20365;SDS011;10341;49.894;8.822;2023-03-23T17:58:04;1.63;;;0.93;;
20365;SDS011;10341;49.894;8.822;2023-03-23T18:03:24;0.95;;;0.80;;
20365;SDS011;10341;49.894;8.822;2023-03-23T18:14:03;1.08;;;0.95;;
20365;SDS011;10341;49.894;8.822;2023-03-23T18:19:22;1.65;;;1.00;;
20365;SDS011;10341;49.894;8.822;2023-03-23T18:24:42;1.40;;;1.10;;
20365;SDS011;10341;49.894;8.822;2023-03-23T18:30:01;2.13;;;1.10;;
20365;SDS011;10341;49.894;8.822;2023-03-23T18:40:45;1.45;;;1.15;;
20365;SDS011;10341;49.894;8.822;2023-03-23T18:46:04;1.75;;;1.30;;
20365;SDS011;10341;49.894;8.822;2023-03-23T18:51:24;1.48;;;1.10;;
20365;SDS011;10341;49.894;8.822;2023-03-23T18:56:45;1.50;;;1.40;;
20365;SDS011;10341;49.894;8.822;2023-03-23T19:02:04;2.85;;;1.42;;
20365;SDS011;10341;49.894;8.822;2023-03-23T19:07:25;1.63;;;1.20;;
20365;SDS011;10341;49.894;8.822;2023-03-23T19:12:44;2.55;;;1.70;;
20365;SDS011;10341;49.894;8.822;2023-03-23T19:23:24;3.30;;;2.17;;
20365;SDS011;10341;49.894;8.822;2023-03-23T19:28:44;5.22;;;2.35;;
20365;SDS011;10341;49.894;8.822;2023-03-23T19:34:03;5.22;;;2.40;;
20365;SDS011;10341;49.894;8.822;2023-03-23T19:44:43;3.15;;;2.38;;
20365;SDS011;10341;49.894;8.822;2023-03-23T19:50:03;4.32;;;2.70;;
20365;SDS011;10341;49.894;8.822;2023-03-23T20:00:42;3.83;;;2.80;;
20365;SDS011;10341;49.894;8.822;2023-03-23T20:06:03;3.33;;;2.60;;
20365;SDS011;10341;49.894;8.822;2023-03-23T20:11:25;3.75;;;2.78;;
20365;SDS011;10341;49.894;8.822;2023-03-23T20:16:45;4.97;;;3.22;;
20365;SDS011;10341;49.894;8.822;2023-03-23T20:22:05;4.22;;;3.10;;
20365;SDS011;10341;49.894;8.822;2023-03-23T20:27:24;5.97;;;3.38;;
20365;SDS011;10341;49.894;8.822;2023-03-23T20:32:44;6.22;;;4.07;;
20365;SDS011;10341;49.894;8.822;2023-03-23T20:38:04;4.75;;;3.75;;
20365;SDS011;10341;49.894;8.822;2023-03-23T20:43:23;4.90;;;3.63;;
20365;SDS011;10341;49.894;8.822;2023-03-23T20:48:46;5.90;;;3.97;;
20365;SDS011;10341;49.894;8.822;2023-03-23T20:54:08;6.40;;;4.10;;
20365;SDS011;10341;49.894;8.822;2023-03-23T21:04:47;6.18;;;4.07;;
20365;SDS011;10341;49.894;8.822;2023-03-23T21:10:10;7.03;;;4.10;;
20365;SDS011;10341;49.894;8.822;2023-03-23T21:15:29;8.23;;;4.20;;
20365;SDS011;10341;49.894;8.822;2023-03-23T21:20:49;5.50;;;4.18;;
20365;SDS011;10341;49.894;8.822;2023-03-23T21:26:09;7.40;;;4.25;;
20365;SDS011;10341;49.894;8.822;2023-03-23T21:31:29;6.43;;;3.80;;
20365;SDS011;10341;49.894;8.822;2023-03-23T21:36:49;4.07;;;3.22;;
20365;SDS011;10341;49.894;8.822;2023-03-23T21:42:09;6.63;;;3.10;;
20365;SDS011;10341;49.894;8.822;2023-03-23T21:47:31;4.25;;;3.13;;
20365;SDS011;10341;49.894;8.822;2023-03-23T21:52:50;4.87;;;3.10;;
20365;SDS011;10341;49.894;8.822;2023-03-23T21:58:09;3.05;;;2.40;;
20365;SDS011;10341;49.894;8.822;2023-03-23T22:03:29;2.90;;;2.10;;
20365;SDS011;10341;49.894;8.822;2023-03-23T22:08:50;2.17;;;1.90;;
20365;SDS011;10341;49.894;8.822;2023-03-23T22:14:10;3.05;;;2.13;;
20365;SDS011;10341;49.894;8.822;2023-03-23T22:19:29;4.00;;;1.80;;
20365;SDS011;10341;49.894;8.822;2023-03-23T22:30:09;2.60;;;1.77;;
20365;SDS011;10341;49.894;8.822;2023-03-23T22:35:29;2.90;;;1.73;;
20365;SDS011;10341;49.894;8.822;2023-03-23T22:40:55;4.10;;;1.67;;
20365;SDS011;10341;49.894;8.822;2023-03-23T22:46:16;2.83;;;1.77;;
20365;SDS011;10341;49.894;8.822;2023-03-23T22:56:55;2.85;;;1.75;;
20365;SDS011;10341;49.894;8.822;2023-03-23T23:02:15;3.35;;;1.90;;
20365;SDS011;10341;49.894;8.822;2023-03-23T23:07:35;2.15;;;1.52;;
20365;SDS011;10341;49.894;8.822;2023-03-23T23:18:14;2.22;;;1.45;;
20365;SDS011;10341;49.894;8.822;2023-03-23T23:23:37;2.88;;;1.83;;
20365;SDS011;10341;49.894;8.822;2023-03-23T23:28:56;1.60;;;1.50;;
20365;SDS011;10341;49.894;8.822;2023-03-23T23:34:16;4.53;;;2.33;;
20365;SDS011;10341;49.894;8.822;2023-03-23T23:39:35;2.55;;;2.00;;
20365;SDS011;10341;49.894;8.822;2023-03-23T23:44:56;2.55;;;1.95;;
20365;SDS011;10341;49.894;8.822;2023-03-23T23:50:15;4.00;;;2.10;;
20365;SDS011;10341;49.894;8.822;2023-03-23T23:55:37;2.35;;;1.90;;
